Time;durP1;ratioP1;P1;durP2;ratioP2;P2;SDS_P1;SDS_P2;PMS_P1;PMS_P2;Temp;Humidity;BMP_temperature;BMP_pressure;BME280_temperature;BME280_humidity;BME280_pressure;Samples;Min_cycle;Max_cycle;Signal;HPM_P1;HPM_P2
2020/12/18 07:51:20;;;;;;;9.57;2.80;;;;;;;;;;4949240;26;20048;-82
2020/12/18 07:53:52;;;;;;;11.25;2.45;;;;;;;;;;4954362;28;20027;-83
2020/12/18 07:56:18;;;;;;;7.20;2.47;;;;;;;;;;4950022;28;20110;-82
2020/12/18 07:58:54;;;;;;;11.13;2.83;;;;;;;;;;4948252;28;20110;-82
2020/12/18 08:01:19;;;;;;;9.50;2.60;;;;;;;;;;4967464;28;20389;-82
2020/12/18 08:03:46;;;;;;;9.52;2.30;;;;;;;;;;4957722;28;20102;-82
2020/12/18 08:06:13;;;;;;;8.15;2.30;;;;;;;;;;4955347;28;20110;-82
2020/12/18 08:08:38;;;;;;;9.82;2.33;;;;;;;;;;4948716;28;20032;-83
2020/12/18 08:11:03;;;;;;;8.68;2.63;;;;;;;;;;4952808;28;20462;-82
2020/12/18 08:13:29;;;;;;;5.85;1.92;;;;;;;;;;4946774;28;20023;-82
2020/12/18 08:16:07;;;;;;;15.32;2.85;;;;;;;;;;4954757;28;20023;-83
2020/12/18 08:18:33;;;;;;;12.80;2.47;;;;;;;;;;4951920;28;20028;-83
2020/12/18 08:20:58;;;;;;;7.22;2.33;;;;;;;;;;4953826;28;20020;-83
2020/12/18 08:23:25;;;;;;;8.23;2.45;;;;;;;;;;4952380;28;20113;-83
2020/12/18 08:25:51;;;;;;;7.03;2.40;;;;;;;;;;4950046;28;20034;-82
2020/12/18 08:28:16;;;;;;;8.82;2.20;;;;;;;;;;4945073;29;20027;-83
2020/12/18 08:30:42;;;;;;;14.55;2.70;;;;;;;;;;4950979;28;20123;-82
2020/12/18 08:33:08;;;;;;;6.75;2.55;;;;;;;;;;4947688;28;20399;-83
2020/12/18 08:35:33;;;;;;;11.95;2.15;;;;;;;;;;4948229;28;20027;-82
2020/12/18 08:38:08;;;;;;;9.68;1.83;;;;;;;;;;4948039;29;20058;-83
2020/12/18 08:40:39;;;;;;;3.63;1.80;;;;;;;;;;4952812;28;20344;-83
2020/12/18 08:43:04;;;;;;;6.88;1.77;;;;;;;;;;4952942;28;20393;-83
2020/12/18 08:45:29;;;;;;;7.45;1.92;;;;;;;;;;4954386;28;20015;-82
2020/12/18 08:47:55;;;;;;;6.25;2.08;;;;;;;;;;4953697;28;20086;-83
2020/12/18 08:50:20;;;;;;;6.43;2.42;;;;;;;;;;4955697;28;20027;-83
2020/12/18 08:52:47;;;;;;;5.35;1.90;;;;;;;;;;4955261;28;20381;-82
2020/12/18 08:55:13;;;;;;;7.38;1.65;;;;;;;;;;4955128;28;20031;-83
2020/12/18 08:57:38;;;;;;;10.32;2.35;;;;;;;;;;4951201;28;20467;-83
2020/12/18 09:00:11;;;;;;;7.82;2.17;;;;;;;;;;4959604;28;20401;-82
2020/12/18 09:02:38;;;;;;;14.05;2.45;;;;;;;;;;4954066;28;20410;-83
2020/12/18 09:05:07;;;;;;;6.28;1.88;;;;;;;;;;4956693;28;20430;-83
2020/12/18 09:07:43;;;;;;;10.88;2.40;;;;;;;;;;4953496;29;20081;-83
2020/12/18 09:10:09;;;;;;;7.38;2.10;;;;;;;;;;4955475;28;20023;-83
2020/12/18 09:12:38;;;;;;;6.93;2.00;;;;;;;;;;4949210;28;20039;-83
2020/12/18 09:15:19;;;;;;;11.02;1.88;;;;;;;;;;4954377;28;20467;-83
2020/12/18 09:17:44;;;;;;;9.00;1.88;;;;;;;;;;4955225;28;20023;-83
2020/12/18 09:20:22;;;;;;;6.97;1.60;;;;;;;;;;4952093;28;20126;-83
2020/12/18 09:22:57;;;;;;;7.50;1.83;;;;;;;;;;4949775;28;20035;-82
2020/12/18 09:25:22;;;;;;;8.93;2.03;;;;;;;;;;4953619;29;20114;-82
2020/12/18 09:27:54;;;;;;;3.55;1.27;;;;;;;;;;4954442;28;20121;-82
2020/12/18 09:30:20;;;;;;;12.95;2.47;;;;;;;;;;4954055;28;20122;-83
2020/12/18 09:32:45;;;;;;;8.20;1.95;;;;;;;;;;4952263;29;20482;-83
2020/12/18 09:35:11;;;;;;;4.40;1.67;;;;;;;;;;4949200;29;20031;-83
2020/12/18 09:37:36;;;;;;;9.70;2.10;;;;;;;;;;4946854;29;20034;-83
2020/12/18 09:40:02;;;;;;;7.10;2.15;;;;;;;;;;4949259;28;20371;-83
2020/12/18 09:42:27;;;;;;;4.88;1.60;;;;;;;;;;4944237;29;20422;-83
2020/12/18 09:44:52;;;;;;;10.18;2.20;;;;;;;;;;4949521;29;20457;-82
2020/12/18 09:47:17;;;;;;;7.93;1.30;;;;;;;;;;4951845;29;20037;-83
2020/12/18 09:49:42;;;;;;;2.00;0.98;;;;;;;;;;4949141;28;20074;-82
2020/12/18 09:52:08;;;;;;;2.45;0.93;;;;;;;;;;4948503;28;20015;-83
2020/12/18 09:54:33;;;;;;;0.90;0.68;;;;;;;;;;4947516;28;20019;-83
2020/12/18 09:56:58;;;;;;;7.43;2.00;;;;;;;;;;4947332;28;20024;-83
2020/12/18 09:59:23;;;;;;;9.05;1.70;;;;;;;;;;4954251;28;20466;-83
2020/12/18 10:01:52;;;;;;;3.00;1.15;;;;;;;;;;4957272;28;20058;-83
2020/12/18 10:04:17;;;;;;;1.20;0.77;;;;;;;;;;4941839;29;20355;-84
2020/12/18 10:06:42;;;;;;;7.30;1.55;;;;;;;;;;4946784;28;20043;-81
2020/12/18 10:09:07;;;;;;;7.93;2.00;;;;;;;;;;4946316;29;20062;-83
2020/12/18 10:11:33;;;;;;;7.60;1.70;;;;;;;;;;4952718;28;20027;-83
2020/12/18 10:13:58;;;;;;;4.93;1.60;;;;;;;;;;4941931;28;20156;-83
2020/12/18 10:16:23;;;;;;;11.10;1.80;;;;;;;;;;4948631;28;20023;-83
2020/12/18 10:18:49;;;;;;;1.52;0.77;;;;;;;;;;4953187;28;20055;-83
2020/12/18 10:21:14;;;;;;;9.65;2.05;;;;;;;;;;4952668;28;20398;-83
2020/12/18 10:23:39;;;;;;;4.00;1.20;;;;;;;;;;4952856;28;20114;-83
2020/12/18 10:26:05;;;;;;;2.53;0.50;;;;;;;;;;4956364;28;20426;-83
2020/12/18 10:28:30;;;;;;;6.75;1.95;;;;;;;;;;4942204;28;20022;-84
2020/12/18 10:30:55;;;;;;;4.97;1.75;;;;;;;;;;4947567;28;20462;-84
2020/12/18 10:33:20;;;;;;;4.43;1.48;;;;;;;;;;4955315;28;20023;-83
2020/12/18 10:35:46;;;;;;;5.72;1.67;;;;;;;;;;4951399;28;20154;-83
2020/12/18 10:38:11;;;;;;;3.72;1.80;;;;;;;;;;4956538;29;20015;-83
2020/12/18 10:40:36;;;;;;;12.35;1.75;;;;;;;;;;4955293;28;20016;-83
2020/12/18 10:43:01;;;;;;;6.07;1.48;;;;;;;;;;4955393;28;20516;-84
2020/12/18 10:45:26;;;;;;;2.80;1.30;;;;;;;;;;4953551;29;20054;-83
2020/12/18 10:47:51;;;;;;;6.63;1.85;;;;;;;;;;4956549;28;20027;-83
2020/12/18 10:50:17;;;;;;;1.73;0.85;;;;;;;;;;4954884;28;20035;-83
2020/12/18 10:52:42;;;;;;;5.03;0.95;;;;;;;;;;4955761;28;20074;-84
2020/12/18 10:55:07;;;;;;;2.65;0.98;;;;;;;;;;4952796;28;20027;-83
2020/12/18 10:57:32;;;;;;;3.40;1.52;;;;;;;;;;4955901;28;20019;-83
2020/12/18 10:59:57;;;;;;;2.38;1.17;;;;;;;;;;4956507;29;20078;-83
2020/12/18 11:02:22;;;;;;;11.38;1.92;;;;;;;;;;4952698;28;20343;-82
2020/12/18 11:04:48;;;;;;;5.60;1.35;;;;;;;;;;4952578;28;20039;-84
2020/12/18 11:07:13;;;;;;;3.83;1.27;;;;;;;;;;4947805;28;20023;-83
2020/12/18 11:09:39;;;;;;;2.17;0.98;;;;;;;;;;4955259;28;20054;-83
2020/12/18 11:12:05;;;;;;;8.60;1.60;;;;;;;;;;4950729;28;20044;-83
2020/12/18 11:14:30;;;;;;;2.28;0.65;;;;;;;;;;4956991;28;20082;-84
2020/12/18 11:16:55;;;;;;;3.17;1.10;;;;;;;;;;4957174;28;20411;-84
2020/12/18 11:19:21;;;;;;;5.22;1.23;;;;;;;;;;4953934;29;20114;-83
2020/12/18 11:21:47;;;;;;;9.93;1.98;;;;;;;;;;4955620;28;20024;-83
2020/12/18 11:24:12;;;;;;;6.95;1.75;;;;;;;;;;4954983;29;20029;-83
2020/12/18 11:26:37;;;;;;;6.10;1.50;;;;;;;;;;4955442;28;20027;-83
2020/12/18 11:29:03;;;;;;;2.58;0.65;;;;;;;;;;4954509;28;20031;-83
2020/12/18 11:31:28;;;;;;;5.57;1.17;;;;;;;;;;4959283;28;20027;-84
2020/12/18 11:33:53;;;;;;;2.95;1.15;;;;;;;;;;4956116;28;20024;-83
2020/12/18 11:36:18;;;;;;;2.38;0.63;;;;;;;;;;4955665;28;20026;-84
2020/12/18 11:38:43;;;;;;;2.38;1.20;;;;;;;;;;4955916;29;20019;-84
2020/12/18 11:41:09;;;;;;;2.00;0.80;;;;;;;;;;4954845;28;20035;-84
2020/12/18 11:43:34;;;;;;;4.53;1.30;;;;;;;;;;4954704;28;20138;-83
2020/12/18 11:46:01;;;;;;;4.88;0.90;;;;;;;;;;4955262;28;20394;-83
2020/12/18 11:48:29;;;;;;;1.48;0.60;;;;;;;;;;4953717;28;20027;-83
2020/12/18 11:50:54;;;;;;;5.90;1.35;;;;;;;;;;4954944;28;20035;-83
2020/12/18 11:53:19;;;;;;;1.88;0.70;;;;;;;;;;4955490;28;20015;-84
2020/12/18 11:55:45;;;;;;;1.65;0.68;;;;;;;;;;4954312;29;20106;-83
2020/12/18 11:58:10;;;;;;;3.67;1.33;;;;;;;;;;4952571;28;20054;-84
2020/12/18 12:00:35;;;;;;;6.07;1.55;;;;;;;;;;4954116;29;20035;-83
2020/12/18 12:03:00;;;;;;;4.40;1.30;;;;;;;;;;4950156;28;20015;-83
2020/12/18 12:05:25;;;;;;;6.03;1.27;;;;;;;;;;4955274;29;20019;-83
2020/12/18 12:07:51;;;;;;;5.70;1.35;;;;;;;;;;4955182;29;20027;-84
2020/12/18 12:10:17;;;;;;;3.38;0.98;;;;;;;;;;4952385;28;20027;-84
2020/12/18 12:12:43;;;;;;;3.80;0.90;;;;;;;;;;4955048;28;20125;-84
2020/12/18 12:15:08;;;;;;;1.42;0.50;;;;;;;;;;4951811;28;20114;-84
2020/12/18 12:17:33;;;;;;;3.55;0.90;;;;;;;;;;4949681;29;20130;-84
2020/12/18 12:19:59;;;;;;;4.60;0.80;;;;;;;;;;4943180;28;20028;-83
2020/12/18 12:22:24;;;;;;;3.28;0.73;;;;;;;;;;4940782;29;20091;-83
2020/12/18 12:24:50;;;;;;;8.50;0.95;;;;;;;;;;4951321;28;20046;-83
2020/12/18 12:27:15;;;;;;;2.25;0.60;;;;;;;;;;4948559;28;20541;-83
2020/12/18 12:29:40;;;;;;;0.05;0.05;;;;;;;;;;4949823;28;20027;-83
2020/12/18 12:32:05;;;;;;;8.27;1.27;;;;;;;;;;4954557;28;20064;-83
2020/12/18 12:34:31;;;;;;;6.72;1.35;;;;;;;;;;4951967;28;20031;-82
2020/12/18 12:36:57;;;;;;;0.38;0.30;;;;;;;;;;4951691;28;20109;-83
2020/12/18 12:39:22;;;;;;;7.32;0.85;;;;;;;;;;4951140;28;20031;-83
2020/12/18 12:41:47;;;;;;;3.28;0.63;;;;;;;;;;4952840;28;20410;-83
2020/12/18 12:44:12;;;;;;;5.57;0.93;;;;;;;;;;4955053;28;20023;-81
2020/12/18 12:46:38;;;;;;;0.52;0.15;;;;;;;;;;4955071;29;20034;-80
2020/12/18 12:49:03;;;;;;;4.30;0.73;;;;;;;;;;4951827;29;20051;-80
2020/12/18 12:51:28;;;;;;;0.95;0.30;;;;;;;;;;4944844;29;20027;-81
2020/12/18 12:53:53;;;;;;;1.90;0.43;;;;;;;;;;4949046;28;20082;-81
2020/12/18 12:56:18;;;;;;;2.05;0.40;;;;;;;;;;4954368;28;20046;-81
2020/12/18 12:58:44;;;;;;;5.95;1.10;;;;;;;;;;4953629;28;20023;-81
2020/12/18 13:01:09;;;;;;;2.30;0.70;;;;;;;;;;4952698;29;20019;-81
2020/12/18 13:03:34;;;;;;;1.60;0.60;;;;;;;;;;4951734;29;20058;-81
2020/12/18 13:05:59;;;;;;;2.10;0.63;;;;;;;;;;4948449;28;20023;-82
2020/12/18 13:08:24;;;;;;;2.35;0.50;;;;;;;;;;4953700;28;20028;-81
2020/12/18 13:10:50;;;;;;;3.03;0.50;;;;;;;;;;4948576;29;20042;-81
2020/12/18 13:13:15;;;;;;;0.85;0.50;;;;;;;;;;4955235;28;20126;-81
2020/12/18 13:15:40;;;;;;;0.90;0.32;;;;;;;;;;4955612;28;20081;-81
2020/12/18 13:18:06;;;;;;;4.70;0.70;;;;;;;;;;4952101;29;20015;-81
2020/12/18 13:20:31;;;;;;;4.80;0.60;;;;;;;;;;4947666;28;20087;-81
2020/12/18 13:22:57;;;;;;;0.80;0.30;;;;;;;;;;4948660;28;20062;-81
2020/12/18 13:25:24;;;;;;;2.85;0.75;;;;;;;;;;4952890;28;20023;-82
2020/12/18 13:27:50;;;;;;;1.00;0.60;;;;;;;;;;4953272;28;20038;-81
2020/12/18 13:30:15;;;;;;;2.55;0.45;;;;;;;;;;4948631;28;20024;-81
2020/12/18 13:32:40;;;;;;;16.08;1.48;;;;;;;;;;4953270;28;20069;-81
2020/12/18 13:35:05;;;;;;;4.75;0.90;;;;;;;;;;4953084;28;20027;-81
2020/12/18 13:37:33;;;;;;;2.25;0.80;;;;;;;;;;4951453;28;20019;-81
2020/12/18 13:39:58;;;;;;;4.18;0.50;;;;;;;;;;4957788;28;20019;-81
2020/12/18 13:42:23;;;;;;;2.53;0.40;;;;;;;;;;4947611;28;20462;-81
2020/12/18 13:44:49;;;;;;;0.88;0.40;;;;;;;;;;4950999;28;20023;-81
2020/12/18 13:47:14;;;;;;;0.32;0.20;;;;;;;;;;4953501;28;20030;-81
2020/12/18 13:49:40;;;;;;;1.50;0.60;;;;;;;;;;4952253;29;20035;-81
2020/12/18 13:52:06;;;;;;;6.50;0.32;;;;;;;;;;4953091;28;20429;-81
2020/12/18 13:54:31;;;;;;;3.05;0.50;;;;;;;;;;4953818;28;20033;-81
2020/12/18 13:56:56;;;;;;;4.93;0.80;;;;;;;;;;4953637;29;20019;-80
2020/12/18 13:59:21;;;;;;;1.38;0.60;;;;;;;;;;4953894;28;20023;-81
2020/12/18 14:01:46;;;;;;;3.33;1.05;;;;;;;;;;4953397;28;20030;-81
2020/12/18 14:04:12;;;;;;;2.00;0.63;;;;;;;;;;4952702;29;20015;-80
2020/12/18 14:06:37;;;;;;;2.83;0.60;;;;;;;;;;4938429;28;20496;-80
2020/12/18 14:09:03;;;;;;;3.38;0.80;;;;;;;;;;4940479;29;20026;-80
2020/12/18 14:11:28;;;;;;;3.95;0.88;;;;;;;;;;4947160;29;20028;-80
2020/12/18 14:13:53;;;;;;;3.08;0.70;;;;;;;;;;4941030;29;20371;-80
2020/12/18 14:16:18;;;;;;;0.75;0.30;;;;;;;;;;4954451;28;20027;-80
2020/12/18 14:18:44;;;;;;;3.05;0.60;;;;;;;;;;4945268;29;20155;-79
2020/12/18 14:21:10;;;;;;;1.50;0.63;;;;;;;;;;4953683;28;20471;-80
2020/12/18 14:23:35;;;;;;;5.18;1.33;;;;;;;;;;4953027;28;20031;-80
2020/12/18 14:26:02;;;;;;;3.30;0.85;;;;;;;;;;4953672;28;20027;-80
2020/12/18 14:28:27;;;;;;;2.22;0.60;;;;;;;;;;4950711;28;20045;-81
2020/12/18 14:30:53;;;;;;;3.85;1.33;;;;;;;;;;4949791;28;20718;-81
2020/12/18 14:33:18;;;;;;;2.15;0.80;;;;;;;;;;4951001;29;20042;-79
2020/12/18 14:35:44;;;;;;;3.35;1.17;;;;;;;;;;4952814;28;20400;-80
2020/12/18 14:38:12;;;;;;;4.57;1.20;;;;;;;;;;4950920;28;20019;-82
2020/12/18 14:40:37;;;;;;;11.98;1.52;;;;;;;;;;4949576;28;20118;-81
2020/12/18 14:43:03;;;;;;;6.80;1.20;;;;;;;;;;4949884;29;20106;-81
2020/12/18 14:45:28;;;;;;;7.93;1.30;;;;;;;;;;4952034;28;20035;-81
2020/12/18 14:47:53;;;;;;;4.72;1.23;;;;;;;;;;4945885;28;20447;-80
2020/12/18 14:50:18;;;;;;;3.00;1.13;;;;;;;;;;4938640;28;20038;-81
2020/12/18 14:52:44;;;;;;;5.07;1.05;;;;;;;;;;4948172;28;20015;-81
2020/12/18 14:55:09;;;;;;;4.57;0.85;;;;;;;;;;4951749;28;20470;-81
2020/12/18 14:57:34;;;;;;;3.40;1.13;;;;;;;;;;4952394;28;20027;-81
2020/12/18 14:59:59;;;;;;;3.42;1.00;;;;;;;;;;4942676;29;20020;-81
2020/12/18 15:02:25;;;;;;;6.03;1.15;;;;;;;;;;4951878;28;20407;-81
2020/12/18 15:04:50;;;;;;;4.90;0.98;;;;;;;;;;4952551;29;20158;-81
2020/12/18 15:07:15;;;;;;;2.50;0.90;;;;;;;;;;4951680;29;20043;-81
2020/12/18 15:09:40;;;;;;;9.10;1.02;;;;;;;;;;4951772;28;20027;-80
2020/12/18 15:12:06;;;;;;;4.13;0.90;;;;;;;;;;4950531;29;20019;-81
2020/12/18 15:14:31;;;;;;;1.95;0.70;;;;;;;;;;4954506;28;20657;-82
2020/12/18 15:16:56;;;;;;;6.25;1.10;;;;;;;;;;4949977;28;20062;-81
2020/12/18 15:19:22;;;;;;;2.75;1.05;;;;;;;;;;4950047;28;20110;-80
2020/12/18 15:21:47;;;;;;;3.42;0.93;;;;;;;;;;4952003;28;20033;-82
2020/12/18 15:24:12;;;;;;;3.72;1.17;;;;;;;;;;4946864;29;20026;-81
2020/12/18 15:26:37;;;;;;;3.45;1.13;;;;;;;;;;4954163;28;20102;-81
2020/12/18 15:29:03;;;;;;;4.68;1.10;;;;;;;;;;4955944;28;20030;-81
2020/12/18 15:31:28;;;;;;;5.10;1.52;;;;;;;;;;4956185;28;20397;-81
2020/12/18 15:33:53;;;;;;;6.68;1.30;;;;;;;;;;4955000;28;20034;-80
2020/12/18 15:36:19;;;;;;;4.45;1.40;;;;;;;;;;4956010;29;20031;-80
2020/12/18 15:38:45;;;;;;;4.53;1.40;;;;;;;;;;4949721;29;20116;-81
2020/12/18 15:41:10;;;;;;;5.00;1.13;;;;;;;;;;4955776;28;20070;-80
2020/12/18 15:43:35;;;;;;;3.03;1.23;;;;;;;;;;4955559;29;20024;-80
2020/12/18 15:46:01;;;;;;;3.60;1.65;;;;;;;;;;4955864;28;20038;-81
2020/12/18 15:48:26;;;;;;;6.78;1.77;;;;;;;;;;4954384;28;20050;-79
2020/12/18 15:50:54;;;;;;;6.78;2.25;;;;;;;;;;4948389;28;20054;-81
2020/12/18 15:53:19;;;;;;;8.27;2.58;;;;;;;;;;4944289;29;20391;-82
2020/12/18 15:55:44;;;;;;;3.28;1.77;;;;;;;;;;4950830;28;20027;-80
2020/12/18 15:58:09;;;;;;;2.90;1.20;;;;;;;;;;4947617;28;20030;-82
2020/12/18 16:00:35;;;;;;;3.08;1.60;;;;;;;;;;4955369;28;20023;-83
2020/12/18 16:03:00;;;;;;;4.53;1.70;;;;;;;;;;4945014;28;20043;-83
2020/12/18 16:05:25;;;;;;;4.68;1.38;;;;;;;;;;4954754;28;20110;-82
2020/12/18 16:07:50;;;;;;;5.63;1.38;;;;;;;;;;4951119;28;20074;-83
2020/12/18 16:10:15;;;;;;;4.13;1.70;;;;;;;;;;4951416;29;20023;-83
2020/12/18 16:12:41;;;;;;;6.15;1.70;;;;;;;;;;4952557;29;20748;-82
2020/12/18 16:15:06;;;;;;;3.53;1.98;;;;;;;;;;4955037;29;20015;-82
2020/12/18 16:17:31;;;;;;;6.82;1.60;;;;;;;;;;4954343;29;20543;-81
2020/12/18 16:19:56;;;;;;;4.22;1.67;;;;;;;;;;4953552;29;20102;-82
2020/12/18 16:22:21;;;;;;;4.57;1.40;;;;;;;;;;4946086;28;20118;-82
2020/12/18 16:24:47;;;;;;;5.07;1.60;;;;;;;;;;4948548;28;20030;-84
2020/12/18 16:27:12;;;;;;;3.63;1.63;;;;;;;;;;4952903;29;20114;-83
2020/12/18 16:29:37;;;;;;;9.68;1.77;;;;;;;;;;4948743;28;20031;-83
2020/12/18 16:32:03;;;;;;;4.93;1.90;;;;;;;;;;4953055;28;20035;-82
2020/12/18 16:34:28;;;;;;;3.97;1.70;;;;;;;;;;4953890;29;20019;-83
2020/12/18 16:36:54;;;;;;;7.45;2.60;;;;;;;;;;4953563;29;20027;-83
2020/12/18 16:39:19;;;;;;;9.33;2.43;;;;;;;;;;4953676;29;20019;-83
2020/12/18 16:41:44;;;;;;;4.40;2.00;;;;;;;;;;4954310;29;20070;-83
2020/12/18 16:44:12;;;;;;;7.10;2.50;;;;;;;;;;4953081;29;20031;-83
2020/12/18 16:46:38;;;;;;;9.27;2.80;;;;;;;;;;4955167;28;20019;-83
2020/12/18 16:49:03;;;;;;;8.73;2.30;;;;;;;;;;4953792;28;20022;-83
2020/12/18 16:51:28;;;;;;;7.93;2.50;;;;;;;;;;4951933;28;20085;-83
2020/12/18 16:53:54;;;;;;;6.78;2.67;;;;;;;;;;4947103;28;20393;-86
2020/12/18 16:56:19;;;;;;;20.47;4.27;;;;;;;;;;4950631;29;20027;-84
2020/12/18 16:58:45;;;;;;;10.47;3.20;;;;;;;;;;4948662;29;20023;-85
2020/12/18 17:01:10;;;;;;;7.77;2.83;;;;;;;;;;4949490;29;20535;-82
2020/12/18 17:03:35;;;;;;;5.50;2.73;;;;;;;;;;4950281;28;20015;-83
2020/12/18 17:06:00;;;;;;;6.57;2.60;;;;;;;;;;4954831;28;20131;-83
2020/12/18 17:08:26;;;;;;;6.63;2.58;;;;;;;;;;4950803;28;20059;-84
2020/12/18 17:10:51;;;;;;;9.52;2.65;;;;;;;;;;4951998;28;20039;-83
2020/12/18 17:13:16;;;;;;;8.57;3.13;;;;;;;;;;4951014;29;20015;-83
2020/12/18 17:15:41;;;;;;;5.38;2.45;;;;;;;;;;4953434;29;20094;-87
2020/12/18 17:18:06;;;;;;;6.18;2.40;;;;;;;;;;4949512;29;20407;-86
2020/12/18 17:20:32;;;;;;;10.32;2.40;;;;;;;;;;4948163;29;20050;-83
2020/12/18 17:22:57;;;;;;;4.13;2.40;;;;;;;;;;4954998;28;20098;-84
2020/12/18 17:25:22;;;;;;;5.40;2.38;;;;;;;;;;4953579;29;20031;-85
2020/12/18 17:27:47;;;;;;;6.20;2.10;;;;;;;;;;4948777;29;20439;-86
2020/12/18 17:30:13;;;;;;;5.57;1.95;;;;;;;;;;4953136;29;20046;-86
2020/12/18 17:32:38;;;;;;;4.65;1.80;;;;;;;;;;4953393;29;20130;-84
2020/12/18 17:35:03;;;;;;;5.47;1.83;;;;;;;;;;4953447;29;20029;-84
2020/12/18 17:37:28;;;;;;;5.13;2.00;;;;;;;;;;4952840;29;20067;-88
2020/12/18 17:39:54;;;;;;;9.65;2.15;;;;;;;;;;4953157;28;20038;-88
2020/12/18 17:42:19;;;;;;;6.10;2.47;;;;;;;;;;4950219;29;20019;-85
2020/12/18 17:44:44;;;;;;;4.15;2.05;;;;;;;;;;4947080;29;20521;-85
2020/12/18 17:47:10;;;;;;;4.60;2.22;;;;;;;;;;4953131;29;20042;-85
2020/12/18 17:49:35;;;;;;;7.72;2.38;;;;;;;;;;4951475;29;20039;-85
2020/12/18 17:52:00;;;;;;;4.00;2.10;;;;;;;;;;4952964;29;20078;-84
2020/12/18 17:54:25;;;;;;;5.40;3.05;;;;;;;;;;4953253;29;20497;-84
2020/12/18 17:56:50;;;;;;;8.73;2.63;;;;;;;;;;4952336;29;20062;-85
2020/12/18 17:59:16;;;;;;;6.90;2.83;;;;;;;;;;4949734;29;20110;-85
2020/12/18 18:01:41;;;;;;;8.57;2.72;;;;;;;;;;4950081;29;20103;-86
2020/12/18 18:04:06;;;;;;;4.63;2.42;;;;;;;;;;4952563;29;20019;-85
2020/12/18 18:06:32;;;;;;;8.05;3.05;;;;;;;;;;4952821;29;20035;-85
2020/12/18 18:08:57;;;;;;;5.32;2.33;;;;;;;;;;4948030;29;20550;-85
2020/12/18 18:11:23;;;;;;;7.68;2.75;;;;;;;;;;4952958;29;20055;-85
2020/12/18 18:13:48;;;;;;;4.82;2.47;;;;;;;;;;4952469;29;20031;-85
2020/12/18 18:16:14;;;;;;;5.72;2.42;;;;;;;;;;4951848;28;20031;-85
2020/12/18 18:18:39;;;;;;;7.63;2.63;;;;;;;;;;4951497;29;20603;-86
2020/12/18 18:21:04;;;;;;;7.70;2.97;;;;;;;;;;4950582;29;20077;-85
2020/12/18 18:23:29;;;;;;;6.38;3.15;;;;;;;;;;4951012;28;20023;-85
2020/12/18 18:25:55;;;;;;;7.43;2.85;;;;;;;;;;4951539;29;20475;-85
2020/12/18 18:28:20;;;;;;;7.55;2.60;;;;;;;;;;4952799;29;20039;-85
2020/12/18 18:30:46;;;;;;;8.60;2.80;;;;;;;;;;4953310;29;20023;-85
2020/12/18 18:33:12;;;;;;;7.65;3.05;;;;;;;;;;4952963;28;20110;-85
2020/12/18 18:35:38;;;;;;;10.27;3.30;;;;;;;;;;4953237;28;20158;-85
2020/12/18 18:38:03;;;;;;;8.23;3.70;;;;;;;;;;4950566;28;20462;-85
2020/12/18 18:40:29;;;;;;;10.82;3.42;;;;;;;;;;4952266;28;20019;-85
2020/12/18 18:42:54;;;;;;;6.88;3.03;;;;;;;;;;4953558;29;20031;-85
2020/12/18 18:45:19;;;;;;;6.70;3.15;;;;;;;;;;4951859;29;20025;-85
2020/12/18 18:47:44;;;;;;;6.18;3.13;;;;;;;;;;4951152;28;20086;-85
2020/12/18 18:50:10;;;;;;;8.63;3.55;;;;;;;;;;4951773;29;20027;-85
2020/12/18 18:52:35;;;;;;;6.10;2.92;;;;;;;;;;4955946;28;20046;-85
2020/12/18 18:55:02;;;;;;;9.40;3.50;;;;;;;;;;4948882;28;20434;-85
2020/12/18 18:57:27;;;;;;;5.22;2.92;;;;;;;;;;4954615;29;20054;-85
2020/12/18 18:59:53;;;;;;;5.57;3.08;;;;;;;;;;4956505;28;20050;-85
2020/12/18 19:02:18;;;;;;;6.90;3.85;;;;;;;;;;4955185;29;20015;-84
2020/12/18 19:04:43;;;;;;;7.72;3.17;;;;;;;;;;4955289;29;20046;-84
2020/12/18 19:07:08;;;;;;;8.35;3.53;;;;;;;;;;4956472;29;20030;-85
2020/12/18 19:09:33;;;;;;;8.50;3.10;;;;;;;;;;4955468;28;20437;-85
2020/12/18 19:11:59;;;;;;;6.20;3.08;;;;;;;;;;4955505;29;20043;-86
2020/12/18 19:14:24;;;;;;;8.55;4.00;;;;;;;;;;4953068;29;20074;-85
2020/12/18 19:16:53;;;;;;;8.05;3.25;;;;;;;;;;4949024;28;20027;-85
2020/12/18 19:19:18;;;;;;;7.53;3.80;;;;;;;;;;4945577;29;20585;-85
2020/12/18 19:21:43;;;;;;;4.60;2.40;;;;;;;;;;4951328;29;20102;-85
2020/12/18 19:24:09;;;;;;;8.60;3.80;;;;;;;;;;4955728;29;20015;-84
2020/12/18 19:26:34;;;;;;;9.85;4.63;;;;;;;;;;4955263;29;20034;-85
2020/12/18 19:29:01;;;;;;;9.95;3.80;;;;;;;;;;4944314;29;20135;-85
2020/12/18 19:31:26;;;;;;;6.32;2.95;;;;;;;;;;4951640;28;20418;-85
2020/12/18 19:33:51;;;;;;;6.28;3.28;;;;;;;;;;4955259;28;20023;-85
2020/12/18 19:36:18;;;;;;;6.05;3.20;;;;;;;;;;4954547;29;20047;-85
2020/12/18 19:38:43;;;;;;;7.43;4.18;;;;;;;;;;4953724;29;20053;-85
2020/12/18 19:41:08;;;;;;;7.20;3.42;;;;;;;;;;4947401;28;20034;-84
2020/12/18 19:43:33;;;;;;;6.55;3.72;;;;;;;;;;4946322;28;20027;-84
2020/12/18 19:45:59;;;;;;;6.68;3.20;;;;;;;;;;4953385;29;20058;-84
2020/12/18 19:48:24;;;;;;;11.13;5.22;;;;;;;;;;4953779;29;20062;-84
2020/12/18 19:50:49;;;;;;;11.23;4.10;;;;;;;;;;4953651;28;20030;-84
2020/12/18 19:53:15;;;;;;;7.60;4.00;;;;;;;;;;4952724;28;20023;-84
2020/12/18 19:55:41;;;;;;;9.25;3.63;;;;;;;;;;4938864;29;20536;-84
2020/12/18 19:58:07;;;;;;;8.80;3.40;;;;;;;;;;4949906;29;20023;-84
2020/12/18 20:00:32;;;;;;;10.82;3.95;;;;;;;;;;4952757;29;20425;-83
2020/12/18 20:02:57;;;;;;;6.63;4.07;;;;;;;;;;4947650;28;20050;-83
2020/12/18 20:05:24;;;;;;;5.95;3.50;;;;;;;;;;4953822;29;20106;-83
2020/12/18 20:07:49;;;;;;;8.00;3.92;;;;;;;;;;4953822;29;20039;-83
2020/12/18 20:10:14;;;;;;;6.53;3.58;;;;;;;;;;4953198;28;20030;-83
2020/12/18 20:12:40;;;;;;;7.40;3.85;;;;;;;;;;4953108;29;20031;-83
2020/12/18 20:15:06;;;;;;;7.40;4.13;;;;;;;;;;4954588;28;20046;-82
2020/12/18 20:17:31;;;;;;;6.85;3.95;;;;;;;;;;4954914;28;20027;-82
2020/12/18 20:19:57;;;;;;;7.07;3.85;;;;;;;;;;4954939;28;20022;-83
2020/12/18 20:22:22;;;;;;;9.60;3.42;;;;;;;;;;4953857;29;20034;-83
2020/12/18 20:24:47;;;;;;;7.25;4.18;;;;;;;;;;4954737;29;20019;-83
2020/12/18 20:27:12;;;;;;;10.02;3.95;;;;;;;;;;4946778;29;20122;-83
2020/12/18 20:29:38;;;;;;;7.43;4.03;;;;;;;;;;4951430;28;20459;-82
2020/12/18 20:32:03;;;;;;;6.30;3.92;;;;;;;;;;4955211;28;20023;-83
2020/12/18 20:34:28;;;;;;;7.90;3.63;;;;;;;;;;4955157;28;20030;-83
2020/12/18 20:36:53;;;;;;;7.38;3.78;;;;;;;;;;4952988;29;20027;-83
2020/12/18 20:39:19;;;;;;;8.38;4.35;;;;;;;;;;4946746;28;20023;-82
2020/12/18 20:41:44;;;;;;;6.78;3.95;;;;;;;;;;4950098;29;20042;-83
2020/12/18 20:44:09;;;;;;;8.00;4.32;;;;;;;;;;4954077;28;20526;-82
2020/12/18 20:46:35;;;;;;;11.93;4.25;;;;;;;;;;4952966;29;20035;-83
2020/12/18 20:49:00;;;;;;;9.52;4.70;;;;;;;;;;4954533;28;20023;-82
2020/12/18 20:51:26;;;;;;;8.27;4.57;;;;;;;;;;4953169;29;20042;-82
2020/12/18 20:53:51;;;;;;;9.43;4.28;;;;;;;;;;4952180;29;20490;-82
2020/12/18 20:56:17;;;;;;;8.90;3.78;;;;;;;;;;4953218;29;20034;-82
2020/12/18 20:58:43;;;;;;;8.85;4.22;;;;;;;;;;4945283;29;20427;-82
2020/12/18 21:01:08;;;;;;;7.00;4.30;;;;;;;;;;4954021;29;20027;-82
2020/12/18 21:03:34;;;;;;;9.00;3.60;;;;;;;;;;4952898;29;20031;-82
2020/12/18 21:05:59;;;;;;;12.50;4.75;;;;;;;;;;4953029;29;20096;-82
2020/12/18 21:08:24;;;;;;;5.68;3.72;;;;;;;;;;4952798;29;20046;-82
2020/12/18 21:10:50;;;;;;;9.52;3.80;;;;;;;;;;4953216;29;20051;-82
2020/12/18 21:13:15;;;;;;;6.90;3.85;;;;;;;;;;4952773;29;20478;-83
2020/12/18 21:15:40;;;;;;;8.05;4.55;;;;;;;;;;4951610;28;20038;-83
2020/12/18 21:18:06;;;;;;;7.15;3.92;;;;;;;;;;4952496;29;20404;-83
2020/12/18 21:20:31;;;;;;;10.23;4.57;;;;;;;;;;4952821;29;20031;-82
2020/12/18 21:22:56;;;;;;;6.68;4.28;;;;;;;;;;4953961;28;20046;-81
2020/12/18 21:25:22;;;;;;;8.55;4.97;;;;;;;;;;4951745;28;20513;-82
2020/12/18 21:27:48;;;;;;;10.48;5.40;;;;;;;;;;4952576;29;20023;-82
2020/12/18 21:30:14;;;;;;;8.38;4.82;;;;;;;;;;4954225;28;20094;-82
2020/12/18 21:32:40;;;;;;;11.25;5.28;;;;;;;;;;4953159;29;20158;-82
2020/12/18 21:35:05;;;;;;;8.93;4.78;;;;;;;;;;4952883;29;20023;-82
2020/12/18 21:37:30;;;;;;;9.18;5.35;;;;;;;;;;4947100;29;20537;-80
2020/12/18 21:39:55;;;;;;;10.27;4.95;;;;;;;;;;4951055;29;20049;-79
2020/12/18 21:42:21;;;;;;;9.10;4.80;;;;;;;;;;4951535;28;20023;-80
2020/12/18 21:44:46;;;;;;;9.15;5.10;;;;;;;;;;4946375;28;20055;-80
2020/12/18 21:47:11;;;;;;;9.38;5.38;;;;;;;;;;4949862;29;20459;-79
2020/12/18 21:49:36;;;;;;;9.18;4.68;;;;;;;;;;4950764;29;20034;-80
2020/12/18 21:52:01;;;;;;;11.93;5.90;;;;;;;;;;4953181;29;20031;-80
2020/12/18 21:54:27;;;;;;;11.38;5.35;;;;;;;;;;4946916;29;20023;-80
2020/12/18 21:56:52;;;;;;;9.43;5.43;;;;;;;;;;4951739;29;20027;-79
2020/12/18 21:59:17;;;;;;;8.05;5.05;;;;;;;;;;4953358;28;20074;-80
2020/12/18 22:01:42;;;;;;;11.05;5.55;;;;;;;;;;4952282;29;20122;-79
2020/12/18 22:04:08;;;;;;;7.75;5.03;;;;;;;;;;4952208;29;20074;-80
2020/12/18 22:06:33;;;;;;;11.25;5.38;;;;;;;;;;4952675;28;20031;-79
2020/12/18 22:08:58;;;;;;;11.30;5.50;;;;;;;;;;4953176;29;20027;-79
2020/12/18 22:11:23;;;;;;;11.13;4.75;;;;;;;;;;4953018;29;20057;-79
2020/12/18 22:13:49;;;;;;;10.55;5.57;;;;;;;;;;4951390;29;20019;-79
2020/12/18 22:16:14;;;;;;;11.75;6.78;;;;;;;;;;4953289;28;20055;-79
2020/12/18 22:18:39;;;;;;;13.48;6.22;;;;;;;;;;4953267;29;20062;-79
2020/12/18 22:21:08;;;;;;;11.93;6.05;;;;;;;;;;4953007;29;20433;-79